createdAt,value
2018-03-20T00:00:43.741Z,8.48
2018-03-20T00:03:18.924Z,8.00
2018-03-20T00:05:53.553Z,8.43
2018-03-20T00:08:28.239Z,12.82
2018-03-20T00:11:02.749Z,9.40
2018-03-20T00:13:37.302Z,9.80
2018-03-20T00:16:12.181Z,8.93
2018-03-20T00:18:46.925Z,9.40
2018-03-20T00:21:21.448Z,9.45
2018-03-20T00:23:57.027Z,9.55
2018-03-20T00:26:32.371Z,9.43
2018-03-20T00:29:07.100Z,10.35
2018-03-20T00:31:41.489Z,10.25
2018-03-20T00:34:16.955Z,10.65
2018-03-20T00:36:51.597Z,13.85
2018-03-20T00:39:26.209Z,9.32
2018-03-20T00:42:00.722Z,9.82
2018-03-20T00:44:35.257Z,10.45
2018-03-20T00:47:09.704Z,10.32
2018-03-20T00:49:44.304Z,13.30
2018-03-20T00:52:19.284Z,15.70
2018-03-20T00:54:54.787Z,12.60
2018-03-20T00:57:29.809Z,11.88
2018-03-20T01:00:04.649Z,9.77
2018-03-20T01:02:39.985Z,11.18
2018-03-20T01:05:14.520Z,11.38
2018-03-20T01:07:48.915Z,12.68
2018-03-20T01:10:23.600Z,12.27
2018-03-20T01:12:58.038Z,13.23
2018-03-20T01:15:32.608Z,10.10
2018-03-20T01:18:07.040Z,10.50
2018-03-20T01:20:41.857Z,10.85
2018-03-20T01:23:16.375Z,11.07
2018-03-20T01:25:50.912Z,10.35
2018-03-20T01:28:25.329Z,11.32
2018-03-20T01:31:00.559Z,10.90
2018-03-20T01:33:35.699Z,10.27
2018-03-20T01:36:10.260Z,10.25
2018-03-20T01:38:44.662Z,9.20
2018-03-20T01:41:19.252Z,11.38
2018-03-20T01:43:53.821Z,12.77
2018-03-20T01:46:28.338Z,12.07
2018-03-20T01:49:02.728Z,11.27
2018-03-20T01:51:37.168Z,11.10
2018-03-20T01:54:12.076Z,12.02
2018-03-20T01:56:46.841Z,10.77
2018-03-20T01:59:22.176Z,11.95
2018-03-20T02:01:57.720Z,11.93
2018-03-20T02:04:32.150Z,10.52
2018-03-20T02:07:06.766Z,9.55
2018-03-20T02:09:41.272Z,11.55
2018-03-20T02:12:15.925Z,11.60
2018-03-20T02:14:50.945Z,12.00
2018-03-20T02:17:25.615Z,11.02
2018-03-20T02:20:00.029Z,13.57
2018-03-20T02:22:34.764Z,10.13
2018-03-20T02:25:09.239Z,11.30
2018-03-20T02:27:43.963Z,9.30
2018-03-20T02:30:19.184Z,8.98
2018-03-20T02:35:35.272Z,9.15
2018-03-20T02:38:09.849Z,9.45
2018-03-20T02:40:44.296Z,9.05
2018-03-20T02:43:19.304Z,7.15
2018-03-20T02:45:53.856Z,8.32
2018-03-20T02:48:28.345Z,7.28
2018-03-20T02:51:03.686Z,6.93
2018-03-20T02:53:38.318Z,7.60
2018-03-20T02:56:12.736Z,6.78
2018-03-20T02:58:47.254Z,7.37
2018-03-20T03:01:22.395Z,7.03
2018-03-20T03:03:57.239Z,6.20
2018-03-20T03:06:32.375Z,5.30
2018-03-20T03:09:07.322Z,5.75
2018-03-20T03:11:41.821Z,6.53
2018-03-20T03:14:17.210Z,6.43
2018-03-20T03:16:52.007Z,6.00
2018-03-20T03:19:26.421Z,5.53
2018-03-20T03:22:00.855Z,6.22
2018-03-20T03:24:35.463Z,6.82
2018-03-20T03:27:09.889Z,5.87
2018-03-20T03:29:44.711Z,5.62
2018-03-20T03:32:20.056Z,6.25
2018-03-20T03:34:54.807Z,6.40
2018-03-20T03:37:30.127Z,5.85
2018-03-20T03:40:04.650Z,5.20
2018-03-20T03:42:39.124Z,5.50
2018-03-20T03:45:13.896Z,5.45
2018-03-20T03:47:49.303Z,4.72
2018-03-20T03:50:23.768Z,5.62
2018-03-20T03:52:58.208Z,4.62
2018-03-20T03:55:33.008Z,5.20
2018-03-20T03:58:07.436Z,5.25
2018-03-20T04:00:42.263Z,4.70
2018-03-20T04:03:16.667Z,5.00
2018-03-20T04:05:51.311Z,5.30
2018-03-20T04:08:25.816Z,5.12
2018-03-20T04:11:00.982Z,5.22
2018-03-20T04:13:35.378Z,6.22
2018-03-20T04:16:10.023Z,6.05
2018-03-20T04:18:45.121Z,7.00
2018-03-20T04:21:19.894Z,5.45
2018-03-20T04:23:54.315Z,6.30
2018-03-20T04:26:28.943Z,5.53
2018-03-20T04:29:03.373Z,6.37
2018-03-20T04:31:37.980Z,5.90
2018-03-20T04:34:12.437Z,5.35
2018-03-20T04:36:46.947Z,5.00
2018-03-20T04:39:21.451Z,5.22
2018-03-20T04:41:56.902Z,5.75
2018-03-20T04:44:31.212Z,5.10
2018-03-20T04:47:05.739Z,5.25
2018-03-20T04:49:40.058Z,5.60
2018-03-20T04:52:15.496Z,5.20
2018-03-20T04:54:50.807Z,4.85
2018-03-20T04:57:27.051Z,4.87
2018-03-20T05:00:01.286Z,5.05
2018-03-20T05:02:36.052Z,4.65
2018-03-20T05:05:11.126Z,5.15
2018-03-20T05:07:45.719Z,5.75
2018-03-20T05:10:21.055Z,4.40
2018-03-20T05:12:55.500Z,4.57
2018-03-20T05:15:29.991Z,5.03
2018-03-20T05:18:04.720Z,4.35
2018-03-20T05:20:49.053Z,4.60
2018-03-20T05:26:24.319Z,4.43
2018-03-20T05:28:58.785Z,4.45
2018-03-20T05:31:34.297Z,4.68
2018-03-20T05:34:09.150Z,3.87
2018-03-20T05:36:44.057Z,4.22
2018-03-20T05:39:18.796Z,3.75
2018-03-20T05:41:53.946Z,4.32
2018-03-20T05:44:28.455Z,3.20
2018-03-20T05:50:22.771Z,3.35
2018-03-20T05:52:57.168Z,3.42
2018-03-20T05:55:31.565Z,3.50
2018-03-20T05:58:06.027Z,3.17
2018-03-20T06:00:40.656Z,2.47
2018-03-20T06:03:15.193Z,2.85
2018-03-20T06:05:50.111Z,3.12
2018-03-20T06:08:24.487Z,3.05
2018-03-20T06:11:00.605Z,2.62
2018-03-20T06:13:34.924Z,2.78
2018-03-20T06:16:09.431Z,3.62
2018-03-20T06:18:44.562Z,3.30
2018-03-20T06:21:19.304Z,3.12
2018-03-20T06:23:53.607Z,2.90
2018-03-20T06:26:28.138Z,3.00
2018-03-20T06:29:03.515Z,3.45
2018-03-20T06:31:38.221Z,3.80
2018-03-20T06:34:12.736Z,3.12
2018-03-20T06:36:47.476Z,2.83
2018-03-20T06:39:21.760Z,3.92
2018-03-20T06:41:56.918Z,3.10
2018-03-20T06:44:31.470Z,2.80
2018-03-20T06:47:06.583Z,2.97
2018-03-20T06:49:41.954Z,2.90
2018-03-20T06:52:16.663Z,2.80
2018-03-20T06:54:51.195Z,3.17
2018-03-20T06:57:25.603Z,3.10
2018-03-20T07:00:00.584Z,2.90
2018-03-20T07:02:35.144Z,2.90
2018-03-20T07:05:09.548Z,3.05
2018-03-20T07:07:44.119Z,2.92
2018-03-20T07:10:18.822Z,2.95
2018-03-20T07:12:53.569Z,3.60
2018-03-20T07:15:28.320Z,2.75
2018-03-20T07:18:03.022Z,2.90
2018-03-20T07:20:37.320Z,2.85
2018-03-20T07:23:12.067Z,2.60
2018-03-20T07:25:46.593Z,2.70
2018-03-20T07:28:21.246Z,2.55
2018-03-20T07:30:55.635Z,2.60
2018-03-20T07:33:30.671Z,2.80
2018-03-20T07:36:05.192Z,2.40
2018-03-20T07:38:39.820Z,2.40
2018-03-20T07:41:14.108Z,2.00
2018-03-20T07:43:48.672Z,1.80
2018-03-20T07:46:23.062Z,1.87
2018-03-20T07:48:57.713Z,2.22
2018-03-20T07:51:32.133Z,1.83
2018-03-20T07:54:06.755Z,1.65
2018-03-20T07:56:41.315Z,2.25
2018-03-20T07:59:16.656Z,2.37
2018-03-20T08:01:50.963Z,2.12
2018-03-20T08:04:25.667Z,1.65
2018-03-20T08:07:00.428Z,1.83
2018-03-20T08:09:35.527Z,1.70
2018-03-20T08:12:10.677Z,1.75
2018-03-20T08:14:45.291Z,1.45
2018-03-20T08:17:19.747Z,1.70
2018-03-20T08:19:54.453Z,1.85
2018-03-20T08:22:29.008Z,2.00
2018-03-20T08:25:03.499Z,1.35
2018-03-20T08:27:38.636Z,1.83
2018-03-20T08:30:13.151Z,1.70
2018-03-20T08:32:47.617Z,2.10
2018-03-20T08:35:22.608Z,1.40
2018-03-20T08:37:57.025Z,1.62
2018-03-20T08:40:31.652Z,1.30
2018-03-20T08:43:06.081Z,1.35
2018-03-20T08:45:40.707Z,1.60
2018-03-20T08:48:15.279Z,1.52
2018-03-20T08:50:49.748Z,1.20
2018-03-20T08:53:24.990Z,1.30
2018-03-20T08:55:59.612Z,1.30
2018-03-20T08:58:34.092Z,1.70
2018-03-20T09:01:08.668Z,1.40
2018-03-20T09:03:43.200Z,1.40
2018-03-20T09:06:17.708Z,1.70
2018-03-20T09:08:52.107Z,1.67
2018-03-20T09:11:28.696Z,1.65
2018-03-20T09:14:03.067Z,1.50
2018-03-20T09:16:37.648Z,1.85
2018-03-20T09:19:12.046Z,1.80
2018-03-20T09:21:46.718Z,2.25
2018-03-20T09:24:21.323Z,1.70
2018-03-20T09:26:55.964Z,1.37
2018-03-20T09:29:30.205Z,1.75
2018-03-20T09:32:04.784Z,1.50
2018-03-20T09:34:39.922Z,1.60
2018-03-20T09:37:14.648Z,1.40
2018-03-20T09:39:49.051Z,1.52
2018-03-20T09:42:23.700Z,1.60
2018-03-20T09:44:58.232Z,1.98
2018-03-20T09:47:32.792Z,1.25
2018-03-20T09:50:07.975Z,1.50
2018-03-20T09:52:42.608Z,1.60
2018-03-20T09:55:17.045Z,1.60
2018-03-20T09:57:51.660Z,1.00
2018-03-20T10:00:26.260Z,1.40
2018-03-20T10:03:00.701Z,1.30
2018-03-20T10:05:35.102Z,1.35
2018-03-20T10:08:09.544Z,1.92
2018-03-20T10:10:44.601Z,1.70
2018-03-20T10:13:19.255Z,1.30
2018-03-20T10:15:53.836Z,1.20
2018-03-20T10:18:28.259Z,1.45
2018-03-20T10:21:02.816Z,1.40
2018-03-20T10:23:37.508Z,1.33
2018-03-20T10:26:12.338Z,1.10
2018-03-20T10:28:46.753Z,1.40
2018-03-20T10:31:22.000Z,1.70
2018-03-20T10:33:56.631Z,1.25
2018-03-20T10:36:31.093Z,1.60
2018-03-20T10:39:05.669Z,1.00
2018-03-20T10:41:40.013Z,1.50
2018-03-20T10:44:14.512Z,1.30
2018-03-20T10:46:49.151Z,1.40
2018-03-20T10:49:24.032Z,1.60
2018-03-20T10:51:58.576Z,2.17
2018-03-20T10:54:34.245Z,1.50
2018-03-20T10:57:08.614Z,1.15
2018-03-20T10:59:43.172Z,1.40
2018-03-20T11:02:19.520Z,1.50
2018-03-20T11:04:54.171Z,1.50
2018-03-20T11:07:28.523Z,1.52
2018-03-20T11:10:03.229Z,1.60
2018-03-20T11:12:38.603Z,1.23
2018-03-20T11:15:13.491Z,1.45
2018-03-20T11:17:48.125Z,1.20
2018-03-20T11:20:23.159Z,1.27
2018-03-20T11:22:58.123Z,1.30
2018-03-20T11:25:32.819Z,1.35
2018-03-20T11:28:07.084Z,1.42
2018-03-20T11:30:41.875Z,1.40
2018-03-20T11:33:17.477Z,1.30
2018-03-20T11:35:52.145Z,1.40
2018-03-20T11:38:26.682Z,1.27
2018-03-20T11:41:01.197Z,1.42
2018-03-20T11:43:35.632Z,1.40
2018-03-20T11:46:10.461Z,0.95
2018-03-20T11:48:45.032Z,1.58
2018-03-20T11:51:19.692Z,1.55
2018-03-20T11:53:54.730Z,1.40
2018-03-20T11:56:29.351Z,0.90
2018-03-20T11:59:03.670Z,1.20
2018-03-20T12:01:38.192Z,0.90
2018-03-20T12:04:12.742Z,1.10
2018-03-20T12:06:47.245Z,1.25
2018-03-20T12:09:50.527Z,1.23
2018-03-20T12:12:25.163Z,1.30
2018-03-20T12:14:59.428Z,1.40
2018-03-20T12:17:34.823Z,1.05
2018-03-20T12:20:09.228Z,1.10
2018-03-20T12:22:43.875Z,1.70
2018-03-20T12:25:18.468Z,1.40
2018-03-20T12:27:52.896Z,4.30
2018-03-20T12:30:27.500Z,1.33
2018-03-20T12:33:03.016Z,1.25
2018-03-20T12:35:38.132Z,2.05
2018-03-20T12:38:12.646Z,1.60
2018-03-20T12:40:46.964Z,1.60
2018-03-20T12:43:21.500Z,1.70
2018-03-20T12:45:56.115Z,0.90
2018-03-20T12:48:30.757Z,1.85
2018-03-20T12:51:05.176Z,2.65
2018-03-20T12:53:40.599Z,1.25
2018-03-20T12:56:16.279Z,1.40
2018-03-20T12:58:51.703Z,1.50
2018-03-20T13:01:26.413Z,1.17
2018-03-20T13:04:01.363Z,1.23
2018-03-20T13:06:36.709Z,1.12
2018-03-20T13:09:11.431Z,1.20
2018-03-20T13:11:45.857Z,1.10
2018-03-20T13:14:20.688Z,1.00
2018-03-20T13:16:56.021Z,1.70
2018-03-20T13:19:30.784Z,1.67
2018-03-20T13:22:06.137Z,1.70
2018-03-20T13:24:41.571Z,1.25
2018-03-20T13:27:16.780Z,1.35
2018-03-20T13:29:51.531Z,1.27
2018-03-20T13:32:26.140Z,0.80
2018-03-20T13:35:00.977Z,1.30
2018-03-20T13:37:35.580Z,1.40
2018-03-20T13:40:11.044Z,1.30
2018-03-20T13:42:46.377Z,1.45
2018-03-20T13:45:21.116Z,1.42
2018-03-20T13:47:55.867Z,1.27
2018-03-20T13:50:30.361Z,1.25
2018-03-20T13:53:04.971Z,1.30
2018-03-20T13:55:39.604Z,1.30
2018-03-20T13:58:13.851Z,1.55
2018-03-20T14:00:48.252Z,1.60
2018-03-20T14:03:22.832Z,1.30
2018-03-20T14:05:58.315Z,1.20
2018-03-20T14:08:33.331Z,1.40
2018-03-20T14:11:07.984Z,1.50
2018-03-20T14:13:43.176Z,1.25
2018-03-20T14:16:17.686Z,1.55
2018-03-20T14:18:52.104Z,1.40
2018-03-20T14:21:26.892Z,1.40
2018-03-20T14:24:01.429Z,1.45
2018-03-20T14:26:36.143Z,1.30
2018-03-20T14:29:10.411Z,0.98
2018-03-20T14:31:44.990Z,1.77
2018-03-20T14:34:20.333Z,1.10
2018-03-20T14:36:55.176Z,1.40
2018-03-20T14:39:29.591Z,1.40
2018-03-20T14:42:05.131Z,1.70
2018-03-20T14:44:40.629Z,1.70
2018-03-20T14:47:15.462Z,1.40
2018-03-20T14:49:49.775Z,1.30
2018-03-20T14:52:24.465Z,1.40
2018-03-20T14:54:59.016Z,1.40
2018-03-20T14:57:33.627Z,1.40
2018-03-20T15:00:08.682Z,1.52
2018-03-20T15:02:43.490Z,1.30
2018-03-20T15:05:17.876Z,1.60
2018-03-20T15:07:52.899Z,1.48
2018-03-20T15:10:27.958Z,1.50
2018-03-20T15:13:02.583Z,1.48
2018-03-20T15:15:37.024Z,1.60
2018-03-20T15:18:11.628Z,1.50
2018-03-20T15:20:45.964Z,1.60
2018-03-20T15:23:21.294Z,1.60
2018-03-20T15:25:55.575Z,1.50
2018-03-20T15:28:30.141Z,1.35
2018-03-20T15:31:04.636Z,1.23
2018-03-20T15:33:40.419Z,1.67
2018-03-20T15:36:14.838Z,1.50
2018-03-20T15:38:50.092Z,1.23
2018-03-20T15:41:24.621Z,1.23
2018-03-20T15:43:59.325Z,1.35
2018-03-20T15:46:33.857Z,1.25
2018-03-20T15:49:08.600Z,1.35
2018-03-20T15:51:43.083Z,1.45
2018-03-20T15:54:17.626Z,1.30
2018-03-20T15:56:52.271Z,1.35
2018-03-20T15:59:26.888Z,1.35
2018-03-20T16:02:01.399Z,1.30
2018-03-20T16:04:35.958Z,1.98
2018-03-20T16:07:10.478Z,1.20
2018-03-20T16:09:45.072Z,1.35
2018-03-20T16:12:19.672Z,1.67
2018-03-20T16:14:54.218Z,1.75
2018-03-20T16:17:28.772Z,1.67
2018-03-20T16:20:03.261Z,1.40
2018-03-20T16:22:37.753Z,1.45
2018-03-20T16:25:12.308Z,1.90
2018-03-20T16:27:47.319Z,1.80
2018-03-20T16:30:21.986Z,2.70
2018-03-20T16:32:56.607Z,1.45
2018-03-20T16:35:31.038Z,1.80
2018-03-20T16:38:05.323Z,1.62
2018-03-20T16:40:40.075Z,1.10
2018-03-20T16:43:14.609Z,1.00
2018-03-20T16:45:49.117Z,1.37
2018-03-20T16:48:23.647Z,1.40
2018-03-20T16:50:58.157Z,1.30
2018-03-20T16:53:32.542Z,1.10
2018-03-20T16:56:07.819Z,1.20
2018-03-20T16:58:42.227Z,1.33
2018-03-20T17:01:16.809Z,1.45
2018-03-20T17:03:51.339Z,1.40
2018-03-20T17:06:25.907Z,1.55
2018-03-20T17:09:00.436Z,1.48
2018-03-20T17:11:35.143Z,1.60
2018-03-20T17:14:09.692Z,1.75
2018-03-20T17:16:45.654Z,1.75
2018-03-20T17:19:19.950Z,1.73
2018-03-20T17:21:54.696Z,35.75
2018-03-20T17:24:29.835Z,1.30
2018-03-20T17:27:04.576Z,2.00
2018-03-20T17:29:38.975Z,1.83
2018-03-20T17:32:13.401Z,1.48
2018-03-20T17:34:48.614Z,1.35
2018-03-20T17:37:24.152Z,1.67
2018-03-20T17:39:59.422Z,1.70
2018-03-20T17:42:34.160Z,1.60
2018-03-20T17:45:08.627Z,1.40
2018-03-20T17:47:43.214Z,1.42
2018-03-20T17:50:17.600Z,1.75
2018-03-20T17:52:52.035Z,2.60
2018-03-20T17:55:26.570Z,1.70
2018-03-20T17:58:01.293Z,1.98
2018-03-20T18:00:35.746Z,3.25
2018-03-20T18:03:10.239Z,1.70
2018-03-20T18:05:44.688Z,2.78
2018-03-20T18:08:19.487Z,1.45
2018-03-20T18:10:54.637Z,3.87
2018-03-20T18:13:29.286Z,1.70
2018-03-20T18:16:03.812Z,1.83
2018-03-20T18:18:38.201Z,1.42
2018-03-20T18:21:12.589Z,2.10
2018-03-20T18:23:47.245Z,2.33
2018-03-20T18:26:21.673Z,2.85
2018-03-20T18:28:56.435Z,3.42
2018-03-20T18:31:30.937Z,1.60
2018-03-20T18:34:05.547Z,1.58
2018-03-20T18:36:40.119Z,2.10
2018-03-20T18:39:14.613Z,2.40
2018-03-20T18:41:49.097Z,2.10
2018-03-20T18:44:23.688Z,2.28
2018-03-20T18:46:58.110Z,2.00
2018-03-20T18:49:32.707Z,1.98
2018-03-20T18:52:07.249Z,4.55
2018-03-20T18:54:41.757Z,2.03
2018-03-20T18:57:16.278Z,2.45
2018-03-20T18:59:50.787Z,2.17
2018-03-20T19:02:25.335Z,4.70
2018-03-20T19:04:59.937Z,3.00
2018-03-20T19:07:34.477Z,2.72
2018-03-20T19:10:09.917Z,2.90
2018-03-20T19:12:44.411Z,2.60
2018-03-20T19:15:19.757Z,4.97
2018-03-20T19:17:54.180Z,2.60
2018-03-20T19:20:28.736Z,4.32
2018-03-20T19:23:03.169Z,5.90
2018-03-20T19:25:37.703Z,9.23
2018-03-20T19:28:12.591Z,3.05
2018-03-20T19:30:48.575Z,6.45
2018-03-20T19:33:22.999Z,8.23
2018-03-20T19:35:57.380Z,9.00
2018-03-20T19:38:31.680Z,9.00
2018-03-20T19:41:06.368Z,5.95
2018-03-20T19:43:40.950Z,16.35
2018-03-20T19:46:15.593Z,10.45
2018-03-20T19:48:50.128Z,6.05
2018-03-20T19:51:24.731Z,3.45
2018-03-20T19:53:59.272Z,6.75
2018-03-20T19:56:33.672Z,10.80
2018-03-20T19:59:08.119Z,15.25
2018-03-20T20:01:42.783Z,18.90
2018-03-20T20:04:17.176Z,6.95
2018-03-20T20:06:52.506Z,13.50
2018-03-20T20:09:27.009Z,16.20
2018-03-20T20:12:02.607Z,16.85
2018-03-20T20:14:37.007Z,13.55
2018-03-20T20:17:12.648Z,22.25
2018-03-20T20:19:46.891Z,10.15
2018-03-20T20:22:21.499Z,19.60
2018-03-20T20:24:56.417Z,12.82
2018-03-20T20:27:30.945Z,13.88
2018-03-20T20:30:05.375Z,17.67
2018-03-20T20:32:39.995Z,18.55
2018-03-20T20:35:14.556Z,8.00
2018-03-20T20:37:49.039Z,21.08
2018-03-20T20:40:24.154Z,11.07
2018-03-20T20:42:58.922Z,11.15
2018-03-20T20:45:33.595Z,11.35
2018-03-20T20:48:08.944Z,13.13
2018-03-20T20:50:44.103Z,6.62
2018-03-20T20:53:18.624Z,11.07
2018-03-20T20:55:52.937Z,8.65
2018-03-20T20:58:27.747Z,10.98
2018-03-20T21:01:02.563Z,7.95
2018-03-20T21:03:37.238Z,16.62
2018-03-20T21:06:11.503Z,6.43
2018-03-20T21:08:46.292Z,11.10
2018-03-20T21:11:20.760Z,8.35
2018-03-20T21:13:55.316Z,8.90
2018-03-20T21:16:30.645Z,7.95
2018-03-20T21:19:05.608Z,11.40
2018-03-20T21:21:40.386Z,6.53
2018-03-20T21:24:15.096Z,7.00
2018-03-20T21:26:49.516Z,10.15
2018-03-20T21:29:24.113Z,9.27
2018-03-20T21:31:59.219Z,6.50
2018-03-20T21:34:34.179Z,6.00
2018-03-20T21:37:08.756Z,10.35
2018-03-20T21:39:43.200Z,12.80
2018-03-20T21:42:17.818Z,7.57
2018-03-20T21:44:52.455Z,12.00
2018-03-20T21:47:27.608Z,8.10
2018-03-20T21:50:03.142Z,9.18
2018-03-20T21:52:38.301Z,6.90
2018-03-20T21:55:13.827Z,8.50
2018-03-20T21:57:48.288Z,8.32
2018-03-20T22:00:22.877Z,8.00
2018-03-20T22:02:57.691Z,6.53
2018-03-20T22:05:32.255Z,5.35
2018-03-20T22:08:07.573Z,6.97
2018-03-20T22:10:43.116Z,6.62
2018-03-20T22:13:17.557Z,10.95
2018-03-20T22:15:52.373Z,8.45
2018-03-20T22:18:26.894Z,7.03
2018-03-20T22:21:02.431Z,7.90
2018-03-20T22:23:36.885Z,9.43
2018-03-20T22:26:11.904Z,7.35
2018-03-20T22:28:46.364Z,6.87
2018-03-20T22:31:20.935Z,10.77
2018-03-20T22:33:55.978Z,8.25
2018-03-20T22:36:30.812Z,7.00
2018-03-20T22:39:05.177Z,9.23
2018-03-20T22:41:39.687Z,7.25
2018-03-20T22:44:14.152Z,7.03
2018-03-20T22:46:48.721Z,11.20
2018-03-20T22:49:23.152Z,7.65
2018-03-20T22:51:57.943Z,11.88
2018-03-20T22:54:32.264Z,8.80
2018-03-20T22:57:07.808Z,8.88
2018-03-20T22:59:42.228Z,8.75
2018-03-20T23:02:16.867Z,8.27
2018-03-20T23:04:51.227Z,7.55
2018-03-20T23:07:26.724Z,8.60
2018-03-20T23:10:02.064Z,8.73
2018-03-20T23:12:36.999Z,12.55
2018-03-20T23:15:11.456Z,5.50
2018-03-20T23:17:46.048Z,6.37
2018-03-20T23:20:20.745Z,8.93
2018-03-20T23:22:55.504Z,6.55
2018-03-20T23:25:30.007Z,6.18
2018-03-20T23:28:04.552Z,8.20
2018-03-20T23:30:39.144Z,8.32
2018-03-20T23:33:14.011Z,8.27
2018-03-20T23:35:48.399Z,6.45
2018-03-20T23:38:23.052Z,10.32
2018-03-20T23:40:57.614Z,7.47
2018-03-20T23:43:32.299Z,5.72
2018-03-20T23:46:06.740Z,8.02
2018-03-20T23:48:41.345Z,9.60
2018-03-20T23:51:15.959Z,12.30
2018-03-20T23:53:51.420Z,7.18
2018-03-20T23:56:26.045Z,13.80
2018-03-20T23:59:00.872Z,7.53
